sensor_id;sensor_type;location;lat;lon;timestamp;P1;durP1;ratioP1;P2;durP2;ratioP2
8737;SDS011;4405;49.272;8.590;2022-11-13T00:00:28;35.07;;;11.73;;
8737;SDS011;4405;49.272;8.590;2022-11-13T00:02:56;50.13;;;11.50;;
8737;SDS011;4405;49.272;8.590;2022-11-13T00:05:22;36.13;;;10.33;;
8737;SDS011;4405;49.272;8.590;2022-11-13T00:07:49;76.77;;;10.20;;
8737;SDS011;4405;49.272;8.590;2022-11-13T00:10:15;95.07;;;11.23;;
8737;SDS011;4405;49.272;8.590;2022-11-13T00:12:42;62.53;;;10.17;;
8737;SDS011;4405;49.272;8.590;2022-11-13T00:15:08;71.43;;;10.50;;
8737;SDS011;4405;49.272;8.590;2022-11-13T00:17:35;140.33;;;11.80;;
8737;SDS011;4405;49.272;8.590;2022-11-13T00:20:03;133.93;;;11.70;;
8737;SDS011;4405;49.272;8.590;2022-11-13T00:22:29;102.93;;;10.77;;
8737;SDS011;4405;49.272;8.590;2022-11-13T00:24:56;176.20;;;12.80;;
8737;SDS011;4405;49.272;8.590;2022-11-13T00:27:22;123.63;;;11.10;;
8737;SDS011;4405;49.272;8.590;2022-11-13T00:29:49;166.50;;;11.63;;
8737;SDS011;4405;49.272;8.590;2022-11-13T00:32:15;87.53;;;10.63;;
8737;SDS011;4405;49.272;8.590;2022-11-13T00:34:41;76.50;;;10.80;;
8737;SDS011;4405;49.272;8.590;2022-11-13T00:37:09;68.13;;;10.80;;
8737;SDS011;4405;49.272;8.590;2022-11-13T00:39:35;65.43;;;10.63;;
8737;SDS011;4405;49.272;8.590;2022-11-13T00:42:02;50.80;;;9.87;;
8737;SDS011;4405;49.272;8.590;2022-11-13T00:44:28;70.73;;;9.23;;
8737;SDS011;4405;49.272;8.590;2022-11-13T00:46:55;52.63;;;8.50;;
8737;SDS011;4405;49.272;8.590;2022-11-13T00:49:22;77.17;;;8.30;;
8737;SDS011;4405;49.272;8.590;2022-11-13T00:51:48;72.60;;;8.43;;
8737;SDS011;4405;49.272;8.590;2022-11-13T00:54:16;77.13;;;9.07;;
8737;SDS011;4405;49.272;8.590;2022-11-13T00:56:42;41.83;;;9.00;;
8737;SDS011;4405;49.272;8.590;2022-11-13T00:59:09;34.13;;;8.30;;
8737;SDS011;4405;49.272;8.590;2022-11-13T01:01:35;38.17;;;8.03;;
8737;SDS011;4405;49.272;8.590;2022-11-13T01:04:02;28.43;;;7.83;;
8737;SDS011;4405;49.272;8.590;2022-11-13T01:06:28;13.27;;;6.90;;
8737;SDS011;4405;49.272;8.590;2022-11-13T01:08:55;33.83;;;6.93;;
8737;SDS011;4405;49.272;8.590;2022-11-13T01:11:23;32.97;;;7.10;;
8737;SDS011;4405;49.272;8.590;2022-11-13T01:13:50;33.17;;;7.30;;
8737;SDS011;4405;49.272;8.590;2022-11-13T01:16:18;15.93;;;6.50;;
8737;SDS011;4405;49.272;8.590;2022-11-13T01:18:44;10.67;;;6.73;;
8737;SDS011;4405;49.272;8.590;2022-11-13T01:21:11;16.53;;;7.17;;
8737;SDS011;4405;49.272;8.590;2022-11-13T01:23:38;36.67;;;9.10;;
8737;SDS011;4405;49.272;8.590;2022-11-13T01:26:07;16.53;;;7.30;;
8737;SDS011;4405;49.272;8.590;2022-11-13T01:28:35;22.70;;;8.63;;
8737;SDS011;4405;49.272;8.590;2022-11-13T01:31:03;19.13;;;8.83;;
8737;SDS011;4405;49.272;8.590;2022-11-13T01:33:29;47.73;;;8.23;;
8737;SDS011;4405;49.272;8.590;2022-11-13T01:35:58;42.00;;;8.47;;
8737;SDS011;4405;49.272;8.590;2022-11-13T01:38:25;69.77;;;9.10;;
8737;SDS011;4405;49.272;8.590;2022-11-13T01:40:51;20.33;;;8.40;;
8737;SDS011;4405;49.272;8.590;2022-11-13T01:43:24;11.20;;;8.60;;
8737;SDS011;4405;49.272;8.590;2022-11-13T01:48:44;32.30;;;8.70;;
8737;SDS011;4405;49.272;8.590;2022-11-13T01:51:11;14.50;;;8.30;;
8737;SDS011;4405;49.272;8.590;2022-11-13T01:53:39;11.60;;;8.40;;
8737;SDS011;4405;49.272;8.590;2022-11-13T01:56:06;17.60;;;9.23;;
8737;SDS011;4405;49.272;8.590;2022-11-13T01:58:32;23.63;;;9.17;;
8737;SDS011;4405;49.272;8.590;2022-11-13T02:00:59;8.50;;;7.60;;
8737;SDS011;4405;49.272;8.590;2022-11-13T02:03:26;19.60;;;9.13;;
8737;SDS011;4405;49.272;8.590;2022-11-13T02:05:53;26.07;;;8.73;;
8737;SDS011;4405;49.272;8.590;2022-11-13T02:08:20;13.73;;;8.73;;
8737;SDS011;4405;49.272;8.590;2022-11-13T02:10:46;18.73;;;8.50;;
8737;SDS011;4405;49.272;8.590;2022-11-13T02:13:13;12.00;;;9.07;;
8737;SDS011;4405;49.272;8.590;2022-11-13T02:15:39;12.20;;;8.77;;
8737;SDS011;4405;49.272;8.590;2022-11-13T02:18:06;33.43;;;8.00;;
8737;SDS011;4405;49.272;8.590;2022-11-13T02:20:34;9.53;;;7.77;;
8737;SDS011;4405;49.272;8.590;2022-11-13T02:23:05;19.80;;;8.40;;
8737;SDS011;4405;49.272;8.590;2022-11-13T02:25:35;65.47;;;9.00;;
8737;SDS011;4405;49.272;8.590;2022-11-13T02:28:02;11.73;;;7.43;;
8737;SDS011;4405;49.272;8.590;2022-11-13T02:30:29;14.23;;;7.87;;
8737;SDS011;4405;49.272;8.590;2022-11-13T02:32:56;11.47;;;8.50;;
8737;SDS011;4405;49.272;8.590;2022-11-13T02:35:23;23.37;;;12.77;;
8737;SDS011;4405;49.272;8.590;2022-11-13T02:37:50;23.57;;;14.77;;
8737;SDS011;4405;49.272;8.590;2022-11-13T02:40:17;24.17;;;14.53;;
8737;SDS011;4405;49.272;8.590;2022-11-13T02:42:45;25.77;;;16.37;;
8737;SDS011;4405;49.272;8.590;2022-11-13T02:45:11;25.47;;;15.87;;
8737;SDS011;4405;49.272;8.590;2022-11-13T02:47:37;28.20;;;15.73;;
8737;SDS011;4405;49.272;8.590;2022-11-13T02:50:04;26.77;;;15.93;;
8737;SDS011;4405;49.272;8.590;2022-11-13T02:52:31;27.97;;;15.53;;
8737;SDS011;4405;49.272;8.590;2022-11-13T02:54:57;26.10;;;15.37;;
8737;SDS011;4405;49.272;8.590;2022-11-13T02:57:24;19.97;;;14.70;;
8737;SDS011;4405;49.272;8.590;2022-11-13T02:59:51;24.60;;;15.13;;
8737;SDS011;4405;49.272;8.590;2022-11-13T03:02:18;22.50;;;14.33;;
8737;SDS011;4405;49.272;8.590;2022-11-13T03:04:44;25.33;;;14.77;;
8737;SDS011;4405;49.272;8.590;2022-11-13T03:07:10;22.97;;;14.40;;
8737;SDS011;4405;49.272;8.590;2022-11-13T03:09:37;25.13;;;14.37;;
8737;SDS011;4405;49.272;8.590;2022-11-13T03:12:03;22.07;;;14.47;;
8737;SDS011;4405;49.272;8.590;2022-11-13T03:14:30;24.70;;;14.43;;
8737;SDS011;4405;49.272;8.590;2022-11-13T03:16:57;24.67;;;14.77;;
8737;SDS011;4405;49.272;8.590;2022-11-13T03:19:24;22.53;;;14.27;;
8737;SDS011;4405;49.272;8.590;2022-11-13T03:21:50;19.47;;;13.87;;
8737;SDS011;4405;49.272;8.590;2022-11-13T03:24:17;19.57;;;13.13;;
8737;SDS011;4405;49.272;8.590;2022-11-13T03:26:43;19.80;;;12.80;;
8737;SDS011;4405;49.272;8.590;2022-11-13T03:29:09;20.13;;;13.20;;
8737;SDS011;4405;49.272;8.590;2022-11-13T03:31:36;19.30;;;13.33;;
8737;SDS011;4405;49.272;8.590;2022-11-13T03:34:04;21.67;;;14.80;;
8737;SDS011;4405;49.272;8.590;2022-11-13T03:36:30;19.03;;;12.80;;
8737;SDS011;4405;49.272;8.590;2022-11-13T03:38:56;21.27;;;14.80;;
8737;SDS011;4405;49.272;8.590;2022-11-13T03:41:23;21.90;;;13.50;;
8737;SDS011;4405;49.272;8.590;2022-11-13T03:43:49;19.63;;;13.73;;
8737;SDS011;4405;49.272;8.590;2022-11-13T03:46:15;23.17;;;14.00;;
8737;SDS011;4405;49.272;8.590;2022-11-13T03:48:42;19.23;;;13.53;;
8737;SDS011;4405;49.272;8.590;2022-11-13T03:51:09;21.77;;;13.60;;
8737;SDS011;4405;49.272;8.590;2022-11-13T03:53:36;20.73;;;13.93;;
8737;SDS011;4405;49.272;8.590;2022-11-13T03:56:02;18.47;;;13.40;;
8737;SDS011;4405;49.272;8.590;2022-11-13T03:58:28;18.53;;;13.77;;
8737;SDS011;4405;49.272;8.590;2022-11-13T04:00:55;20.10;;;13.27;;
8737;SDS011;4405;49.272;8.590;2022-11-13T04:03:21;22.00;;;15.03;;
8737;SDS011;4405;49.272;8.590;2022-11-13T04:05:48;22.57;;;13.97;;
8737;SDS011;4405;49.272;8.590;2022-11-13T04:08:16;20.73;;;13.50;;
8737;SDS011;4405;49.272;8.590;2022-11-13T04:10:43;21.50;;;13.77;;
8737;SDS011;4405;49.272;8.590;2022-11-13T04:13:10;20.47;;;13.43;;
8737;SDS011;4405;49.272;8.590;2022-11-13T04:15:36;19.80;;;13.17;;
8737;SDS011;4405;49.272;8.590;2022-11-13T04:18:03;16.97;;;12.43;;
8737;SDS011;4405;49.272;8.590;2022-11-13T04:20:29;15.80;;;12.57;;
8737;SDS011;4405;49.272;8.590;2022-11-13T04:22:56;15.87;;;11.40;;
8737;SDS011;4405;49.272;8.590;2022-11-13T04:25:24;16.93;;;13.03;;
8737;SDS011;4405;49.272;8.590;2022-11-13T04:27:50;16.10;;;12.17;;
8737;SDS011;4405;49.272;8.590;2022-11-13T04:30:17;16.10;;;12.57;;
8737;SDS011;4405;49.272;8.590;2022-11-13T04:32:43;16.80;;;12.53;;
8737;SDS011;4405;49.272;8.590;2022-11-13T04:35:10;17.37;;;11.63;;
8737;SDS011;4405;49.272;8.590;2022-11-13T04:37:36;17.30;;;12.03;;
8737;SDS011;4405;49.272;8.590;2022-11-13T04:40:03;16.53;;;11.43;;
8737;SDS011;4405;49.272;8.590;2022-11-13T04:42:31;17.63;;;12.00;;
8737;SDS011;4405;49.272;8.590;2022-11-13T04:45:15;17.27;;;11.97;;
8737;SDS011;4405;49.272;8.590;2022-11-13T04:47:41;16.93;;;11.77;;
8737;SDS011;4405;49.272;8.590;2022-11-13T04:50:08;16.80;;;11.43;;
8737;SDS011;4405;49.272;8.590;2022-11-13T04:52:34;14.83;;;11.97;;
8737;SDS011;4405;49.272;8.590;2022-11-13T04:55:01;17.37;;;11.97;;
8737;SDS011;4405;49.272;8.590;2022-11-13T04:57:27;32.53;;;11.50;;
8737;SDS011;4405;49.272;8.590;2022-11-13T04:59:55;14.43;;;11.77;;
8737;SDS011;4405;49.272;8.590;2022-11-13T05:02:21;14.23;;;10.47;;
8737;SDS011;4405;49.272;8.590;2022-11-13T05:04:48;16.77;;;10.70;;
8737;SDS011;4405;49.272;8.590;2022-11-13T05:07:14;18.50;;;11.10;;
8737;SDS011;4405;49.272;8.590;2022-11-13T05:09:41;22.07;;;10.33;;
8737;SDS011;4405;49.272;8.590;2022-11-13T05:12:07;13.17;;;10.80;;
8737;SDS011;4405;49.272;8.590;2022-11-13T05:14:34;12.13;;;10.03;;
8737;SDS011;4405;49.272;8.590;2022-11-13T05:17:02;15.80;;;9.70;;
8737;SDS011;4405;49.272;8.590;2022-11-13T05:19:29;11.93;;;10.00;;
8737;SDS011;4405;49.272;8.590;2022-11-13T05:21:55;13.57;;;9.90;;
8737;SDS011;4405;49.272;8.590;2022-11-13T05:24:21;12.47;;;9.70;;
8737;SDS011;4405;49.272;8.590;2022-11-13T05:26:48;14.70;;;10.43;;
8737;SDS011;4405;49.272;8.590;2022-11-13T05:29:14;12.57;;;10.10;;
8737;SDS011;4405;49.272;8.590;2022-11-13T05:31:40;14.13;;;10.83;;
8737;SDS011;4405;49.272;8.590;2022-11-13T05:34:08;21.33;;;10.40;;
8737;SDS011;4405;49.272;8.590;2022-11-13T05:36:34;13.80;;;9.80;;
8737;SDS011;4405;49.272;8.590;2022-11-13T05:39:01;15.57;;;9.97;;
8737;SDS011;4405;49.272;8.590;2022-11-13T05:41:28;13.60;;;10.43;;
8737;SDS011;4405;49.272;8.590;2022-11-13T05:43:54;18.90;;;10.70;;
8737;SDS011;4405;49.272;8.590;2022-11-13T05:46:21;14.37;;;10.90;;
8737;SDS011;4405;49.272;8.590;2022-11-13T05:48:50;12.07;;;9.87;;
8737;SDS011;4405;49.272;8.590;2022-11-13T05:51:20;15.03;;;10.47;;
8737;SDS011;4405;49.272;8.590;2022-11-13T05:53:46;14.63;;;10.60;;
8737;SDS011;4405;49.272;8.590;2022-11-13T05:56:13;11.77;;;9.80;;
8737;SDS011;4405;49.272;8.590;2022-11-13T05:58:40;12.43;;;10.60;;
8737;SDS011;4405;49.272;8.590;2022-11-13T06:01:08;12.43;;;10.60;;
8737;SDS011;4405;49.272;8.590;2022-11-13T06:03:35;11.60;;;10.17;;
8737;SDS011;4405;49.272;8.590;2022-11-13T06:06:01;10.53;;;9.40;;
8737;SDS011;4405;49.272;8.590;2022-11-13T06:08:29;10.67;;;8.83;;
8737;SDS011;4405;49.272;8.590;2022-11-13T06:10:58;9.67;;;7.83;;
8737;SDS011;4405;49.272;8.590;2022-11-13T06:13:25;9.60;;;8.60;;
8737;SDS011;4405;49.272;8.590;2022-11-13T06:15:51;10.10;;;9.10;;
8737;SDS011;4405;49.272;8.590;2022-11-13T06:18:19;9.77;;;8.63;;
8737;SDS011;4405;49.272;8.590;2022-11-13T06:20:46;9.50;;;8.50;;
8737;SDS011;4405;49.272;8.590;2022-11-13T06:23:12;10.83;;;8.57;;
8737;SDS011;4405;49.272;8.590;2022-11-13T06:25:40;8.87;;;8.00;;
8737;SDS011;4405;49.272;8.590;2022-11-13T06:28:06;16.20;;;8.90;;
8737;SDS011;4405;49.272;8.590;2022-11-13T06:30:33;9.27;;;8.37;;
8737;SDS011;4405;49.272;8.590;2022-11-13T06:32:59;10.57;;;8.47;;
8737;SDS011;4405;49.272;8.590;2022-11-13T06:35:25;9.13;;;8.03;;
8737;SDS011;4405;49.272;8.590;2022-11-13T06:37:53;9.03;;;8.13;;
8737;SDS011;4405;49.272;8.590;2022-11-13T06:40:19;11.40;;;8.60;;
8737;SDS011;4405;49.272;8.590;2022-11-13T06:42:47;10.00;;;8.80;;
8737;SDS011;4405;49.272;8.590;2022-11-13T06:45:13;8.10;;;7.30;;
8737;SDS011;4405;49.272;8.590;2022-11-13T06:47:40;8.20;;;7.40;;
8737;SDS011;4405;49.272;8.590;2022-11-13T06:50:06;9.07;;;8.10;;
8737;SDS011;4405;49.272;8.590;2022-11-13T06:52:33;10.70;;;8.80;;
8737;SDS011;4405;49.272;8.590;2022-11-13T06:54:59;13.20;;;9.20;;
8737;SDS011;4405;49.272;8.590;2022-11-13T06:57:26;9.37;;;8.37;;
8737;SDS011;4405;49.272;8.590;2022-11-13T06:59:54;8.60;;;7.70;;
8737;SDS011;4405;49.272;8.590;2022-11-13T07:02:20;8.10;;;7.30;;
8737;SDS011;4405;49.272;8.590;2022-11-13T07:04:46;8.53;;;7.73;;
8737;SDS011;4405;49.272;8.590;2022-11-13T07:07:13;8.90;;;8.00;;
8737;SDS011;4405;49.272;8.590;2022-11-13T07:09:39;11.93;;;8.43;;
8737;SDS011;4405;49.272;8.590;2022-11-13T07:12:05;12.37;;;8.47;;
8737;SDS011;4405;49.272;8.590;2022-11-13T07:14:32;9.07;;;8.10;;
8737;SDS011;4405;49.272;8.590;2022-11-13T07:16:59;11.13;;;8.93;;
8737;SDS011;4405;49.272;8.590;2022-11-13T07:19:26;8.77;;;7.87;;
8737;SDS011;4405;49.272;8.590;2022-11-13T07:21:52;8.17;;;7.47;;
8737;SDS011;4405;49.272;8.590;2022-11-13T07:24:18;7.73;;;7.03;;
8737;SDS011;4405;49.272;8.590;2022-11-13T07:26:45;8.43;;;7.63;;
8737;SDS011;4405;49.272;8.590;2022-11-13T07:29:11;10.27;;;7.60;;
8737;SDS011;4405;49.272;8.590;2022-11-13T07:31:37;8.10;;;7.30;;
8737;SDS011;4405;49.272;8.590;2022-11-13T07:34:05;8.50;;;7.70;;
8737;SDS011;4405;49.272;8.590;2022-11-13T07:36:31;8.60;;;7.80;;
8737;SDS011;4405;49.272;8.590;2022-11-13T07:38:58;9.43;;;7.63;;
8737;SDS011;4405;49.272;8.590;2022-11-13T07:41:24;12.00;;;7.83;;
8737;SDS011;4405;49.272;8.590;2022-11-13T07:43:51;8.80;;;8.00;;
8737;SDS011;4405;49.272;8.590;2022-11-13T07:46:17;12.20;;;7.33;;
8737;SDS011;4405;49.272;8.590;2022-11-13T07:48:43;9.63;;;7.50;;
8737;SDS011;4405;49.272;8.590;2022-11-13T07:51:11;14.20;;;8.30;;
8737;SDS011;4405;49.272;8.590;2022-11-13T07:53:37;7.93;;;7.23;;
8737;SDS011;4405;49.272;8.590;2022-11-13T07:56:04;11.83;;;7.40;;
8737;SDS011;4405;49.272;8.590;2022-11-13T07:58:30;7.87;;;7.17;;
8737;SDS011;4405;49.272;8.590;2022-11-13T08:01:00;8.13;;;7.23;;
8737;SDS011;4405;49.272;8.590;2022-11-13T08:03:26;9.23;;;7.13;;
8737;SDS011;4405;49.272;8.590;2022-11-13T08:05:58;7.60;;;7.00;;
8737;SDS011;4405;49.272;8.590;2022-11-13T08:08:25;8.60;;;7.80;;
8737;SDS011;4405;49.272;8.590;2022-11-13T08:10:52;9.10;;;8.20;;
8737;SDS011;4405;49.272;8.590;2022-11-13T08:13:18;8.33;;;7.50;;
8737;SDS011;4405;49.272;8.590;2022-11-13T08:15:44;8.67;;;7.83;;
8737;SDS011;4405;49.272;8.590;2022-11-13T08:18:11;11.03;;;9.00;;
8737;SDS011;4405;49.272;8.590;2022-11-13T08:20:37;8.50;;;7.70;;
8737;SDS011;4405;49.272;8.590;2022-11-13T08:23:04;9.83;;;8.50;;
8737;SDS011;4405;49.272;8.590;2022-11-13T08:25:32;9.97;;;8.97;;
8737;SDS011;4405;49.272;8.590;2022-11-13T08:27:58;9.77;;;8.53;;
8737;SDS011;4405;49.272;8.590;2022-11-13T08:30:25;9.97;;;8.97;;
8737;SDS011;4405;49.272;8.590;2022-11-13T08:32:52;9.13;;;8.20;;
8737;SDS011;4405;49.272;8.590;2022-11-13T08:35:18;9.27;;;8.37;;
8737;SDS011;4405;49.272;8.590;2022-11-13T08:37:45;10.13;;;9.13;;
8737;SDS011;4405;49.272;8.590;2022-11-13T08:40:11;9.47;;;8.57;;
8737;SDS011;4405;49.272;8.590;2022-11-13T08:42:39;15.87;;;12.73;;
8737;SDS011;4405;49.272;8.590;2022-11-13T08:45:05;16.27;;;12.43;;
8737;SDS011;4405;49.272;8.590;2022-11-13T08:47:32;10.97;;;8.77;;
8737;SDS011;4405;49.272;8.590;2022-11-13T08:49:58;9.87;;;8.90;;
8737;SDS011;4405;49.272;8.590;2022-11-13T08:52:25;10.80;;;9.27;;
8737;SDS011;4405;49.272;8.590;2022-11-13T08:54:51;16.37;;;13.97;;
8737;SDS011;4405;49.272;8.590;2022-11-13T08:57:18;11.23;;;8.50;;
8737;SDS011;4405;49.272;8.590;2022-11-13T08:59:46;11.23;;;10.13;;
8737;SDS011;4405;49.272;8.590;2022-11-13T09:02:13;10.97;;;9.87;;
8737;SDS011;4405;49.272;8.590;2022-11-13T09:04:40;9.47;;;8.57;;
8737;SDS011;4405;49.272;8.590;2022-11-13T09:07:12;15.83;;;14.33;;
8737;SDS011;4405;49.272;8.590;2022-11-13T09:09:41;46.23;;;28.87;;
8737;SDS011;4405;49.272;8.590;2022-11-13T09:12:07;22.70;;;19.53;;
8737;SDS011;4405;49.272;8.590;2022-11-13T09:14:34;20.50;;;18.30;;
8737;SDS011;4405;49.272;8.590;2022-11-13T09:17:02;18.00;;;14.83;;
8737;SDS011;4405;49.272;8.590;2022-11-13T09:19:29;15.47;;;13.87;;
8737;SDS011;4405;49.272;8.590;2022-11-13T09:21:55;16.00;;;14.30;;
8737;SDS011;4405;49.272;8.590;2022-11-13T09:24:21;14.97;;;13.57;;
8737;SDS011;4405;49.272;8.590;2022-11-13T09:26:48;35.63;;;27.27;;
8737;SDS011;4405;49.272;8.590;2022-11-13T09:29:14;70.33;;;55.33;;
8737;SDS011;4405;49.272;8.590;2022-11-13T09:31:40;27.07;;;22.67;;
8737;SDS011;4405;49.272;8.590;2022-11-13T09:34:08;18.77;;;16.00;;
8737;SDS011;4405;49.272;8.590;2022-11-13T09:36:34;19.77;;;17.03;;
8737;SDS011;4405;49.272;8.590;2022-11-13T09:39:01;23.67;;;20.13;;
8737;SDS011;4405;49.272;8.590;2022-11-13T09:41:28;17.83;;;15.03;;
8737;SDS011;4405;49.272;8.590;2022-11-13T09:43:55;22.37;;;19.03;;
8737;SDS011;4405;49.272;8.590;2022-11-13T09:46:27;15.60;;;13.13;;
8737;SDS011;4405;49.272;8.590;2022-11-13T09:48:58;19.67;;;16.33;;
8737;SDS011;4405;49.272;8.590;2022-11-13T09:51:28;27.30;;;22.57;;
8737;SDS011;4405;49.272;8.590;2022-11-13T09:53:55;17.33;;;15.63;;
8737;SDS011;4405;49.272;8.590;2022-11-13T09:56:27;17.30;;;15.57;;
8737;SDS011;4405;49.272;8.590;2022-11-13T09:58:57;10.70;;;9.70;;
8737;SDS011;4405;49.272;8.590;2022-11-13T10:01:30;10.33;;;9.43;;
8737;SDS011;4405;49.272;8.590;2022-11-13T10:03:59;9.43;;;8.63;;
8737;SDS011;4405;49.272;8.590;2022-11-13T10:06:32;9.23;;;8.40;;
8737;SDS011;4405;49.272;8.590;2022-11-13T10:09:00;9.77;;;8.97;;
8737;SDS011;4405;49.272;8.590;2022-11-13T10:11:31;10.80;;;9.80;;
8737;SDS011;4405;49.272;8.590;2022-11-13T10:14:00;11.27;;;10.10;;
8737;SDS011;4405;49.272;8.590;2022-11-13T10:16:30;11.00;;;10.00;;
8737;SDS011;4405;49.272;8.590;2022-11-13T10:18:59;11.93;;;10.73;;
8737;SDS011;4405;49.272;8.590;2022-11-13T10:21:32;11.77;;;10.57;;
8737;SDS011;4405;49.272;8.590;2022-11-13T10:24:02;11.57;;;10.47;;
8737;SDS011;4405;49.272;8.590;2022-11-13T10:26:30;12.33;;;11.03;;
8737;SDS011;4405;49.272;8.590;2022-11-13T10:28:58;12.80;;;11.47;;
8737;SDS011;4405;49.272;8.590;2022-11-13T10:31:26;11.90;;;10.80;;
8737;SDS011;4405;49.272;8.590;2022-11-13T10:33:53;12.47;;;11.17;;
8737;SDS011;4405;49.272;8.590;2022-11-13T10:36:20;12.97;;;11.67;;
8737;SDS011;4405;49.272;8.590;2022-11-13T10:38:53;15.07;;;11.83;;
8737;SDS011;4405;49.272;8.590;2022-11-13T10:41:23;12.77;;;11.57;;
8737;SDS011;4405;49.272;8.590;2022-11-13T10:43:50;12.73;;;11.53;;
8737;SDS011;4405;49.272;8.590;2022-11-13T10:46:17;12.23;;;10.87;;
8737;SDS011;4405;49.272;8.590;2022-11-13T10:48:44;12.50;;;11.30;;
8737;SDS011;4405;49.272;8.590;2022-11-13T10:51:19;12.73;;;11.53;;
8737;SDS011;4405;49.272;8.590;2022-11-13T10:53:46;11.50;;;10.37;;
8737;SDS011;4405;49.272;8.590;2022-11-13T10:56:20;11.60;;;10.50;;
8737;SDS011;4405;49.272;8.590;2022-11-13T10:59:00;11.53;;;10.37;;
8737;SDS011;4405;49.272;8.590;2022-11-13T11:01:26;11.70;;;10.60;;
8737;SDS011;4405;49.272;8.590;2022-11-13T11:03:53;12.43;;;11.13;;
8737;SDS011;4405;49.272;8.590;2022-11-13T11:06:19;12.30;;;11.13;;
8737;SDS011;4405;49.272;8.590;2022-11-13T11:08:46;12.30;;;11.20;;
8737;SDS011;4405;49.272;8.590;2022-11-13T11:11:13;11.53;;;10.43;;
8737;SDS011;4405;49.272;8.590;2022-11-13T11:14:05;13.40;;;11.40;;
8737;SDS011;4405;49.272;8.590;2022-11-13T11:16:35;12.37;;;11.27;;
8737;SDS011;4405;49.272;8.590;2022-11-13T11:19:03;11.97;;;10.97;;
8737;SDS011;4405;49.272;8.590;2022-11-13T11:21:33;11.80;;;10.70;;
8737;SDS011;4405;49.272;8.590;2022-11-13T11:24:03;12.77;;;11.47;;
8737;SDS011;4405;49.272;8.590;2022-11-13T11:26:32;14.40;;;12.90;;
8737;SDS011;4405;49.272;8.590;2022-11-13T11:29:02;13.40;;;12.13;;
8737;SDS011;4405;49.272;8.590;2022-11-13T11:31:34;12.90;;;11.70;;
8737;SDS011;4405;49.272;8.590;2022-11-13T11:34:01;12.33;;;10.43;;
8737;SDS011;4405;49.272;8.590;2022-11-13T11:36:32;12.40;;;11.27;;
8737;SDS011;4405;49.272;8.590;2022-11-13T11:39:03;11.77;;;10.70;;
8737;SDS011;4405;49.272;8.590;2022-11-13T11:41:31;12.03;;;10.93;;
8737;SDS011;4405;49.272;8.590;2022-11-13T11:44:01;11.80;;;10.80;;
8737;SDS011;4405;49.272;8.590;2022-11-13T11:46:29;11.60;;;10.50;;
8737;SDS011;4405;49.272;8.590;2022-11-13T11:48:58;11.37;;;10.27;;
8737;SDS011;4405;49.272;8.590;2022-11-13T11:51:28;10.77;;;9.87;;
8737;SDS011;4405;49.272;8.590;2022-11-13T11:53:57;11.37;;;10.27;;
8737;SDS011;4405;49.272;8.590;2022-11-13T11:56:26;10.80;;;9.90;;
8737;SDS011;4405;49.272;8.590;2022-11-13T11:59:11;10.93;;;10.03;;
8737;SDS011;4405;49.272;8.590;2022-11-13T12:01:49;10.43;;;9.63;;
8737;SDS011;4405;49.272;8.590;2022-11-13T12:04:27;10.93;;;10.03;;
8737;SDS011;4405;49.272;8.590;2022-11-13T12:06:59;10.60;;;9.80;;
8737;SDS011;4405;49.272;8.590;2022-11-13T12:09:28;10.20;;;9.40;;
8737;SDS011;4405;49.272;8.590;2022-11-13T12:11:58;10.20;;;9.30;;
8737;SDS011;4405;49.272;8.590;2022-11-13T12:14:28;10.17;;;9.40;;
8737;SDS011;4405;49.272;8.590;2022-11-13T12:17:01;10.53;;;9.73;;
8737;SDS011;4405;49.272;8.590;2022-11-13T12:19:34;11.17;;;10.27;;
8737;SDS011;4405;49.272;8.590;2022-11-13T12:22:03;10.47;;;9.67;;
8737;SDS011;4405;49.272;8.590;2022-11-13T12:24:39;10.47;;;9.57;;
8737;SDS011;4405;49.272;8.590;2022-11-13T12:27:09;9.17;;;8.47;;
8737;SDS011;4405;49.272;8.590;2022-11-13T12:29:39;10.87;;;9.77;;
8737;SDS011;4405;49.272;8.590;2022-11-13T12:32:17;9.80;;;8.90;;
8737;SDS011;4405;49.272;8.590;2022-11-13T12:34:48;9.07;;;8.40;;
8737;SDS011;4405;49.272;8.590;2022-11-13T12:37:19;9.57;;;8.67;;
8737;SDS011;4405;49.272;8.590;2022-11-13T12:39:47;10.37;;;9.37;;
8737;SDS011;4405;49.272;8.590;2022-11-13T12:42:18;10.37;;;9.47;;
8737;SDS011;4405;49.272;8.590;2022-11-13T12:44:47;7.97;;;7.40;;
8737;SDS011;4405;49.272;8.590;2022-11-13T12:47:15;11.17;;;10.07;;
8737;SDS011;4405;49.272;8.590;2022-11-13T12:49:42;11.17;;;9.33;;
8737;SDS011;4405;49.272;8.590;2022-11-13T12:52:17;8.00;;;7.30;;
8737;SDS011;4405;49.272;8.590;2022-11-13T12:54:44;7.13;;;6.53;;
8737;SDS011;4405;49.272;8.590;2022-11-13T12:57:21;7.30;;;6.70;;
8737;SDS011;4405;49.272;8.590;2022-11-13T12:59:49;7.70;;;7.10;;
8737;SDS011;4405;49.272;8.590;2022-11-13T13:02:23;7.90;;;7.40;;
8737;SDS011;4405;49.272;8.590;2022-11-13T13:04:57;7.27;;;6.73;;
8737;SDS011;4405;49.272;8.590;2022-11-13T13:07:32;6.77;;;6.17;;
8737;SDS011;4405;49.272;8.590;2022-11-13T13:10:04;6.80;;;6.30;;
8737;SDS011;4405;49.272;8.590;2022-11-13T13:12:39;6.83;;;6.33;;
8737;SDS011;4405;49.272;8.590;2022-11-13T13:15:10;6.40;;;5.90;;
8737;SDS011;4405;49.272;8.590;2022-11-13T13:17:37;7.10;;;6.60;;
8737;SDS011;4405;49.272;8.590;2022-11-13T13:20:05;7.97;;;7.37;;
8737;SDS011;4405;49.272;8.590;2022-11-13T13:22:34;6.67;;;6.27;;
8737;SDS011;4405;49.272;8.590;2022-11-13T13:25:02;8.10;;;7.43;;
8737;SDS011;4405;49.272;8.590;2022-11-13T13:27:34;8.20;;;7.50;;
8737;SDS011;4405;49.272;8.590;2022-11-13T13:30:10;8.80;;;7.90;;
8737;SDS011;4405;49.272;8.590;2022-11-13T13:32:41;8.53;;;7.90;;
8737;SDS011;4405;49.272;8.590;2022-11-13T13:35:13;8.27;;;7.63;;
8737;SDS011;4405;49.272;8.590;2022-11-13T13:37:42;8.23;;;7.53;;
8737;SDS011;4405;49.272;8.590;2022-11-13T13:40:19;8.57;;;7.77;;
8737;SDS011;4405;49.272;8.590;2022-11-13T13:42:55;7.80;;;7.20;;
8737;SDS011;4405;49.272;8.590;2022-11-13T13:45:30;7.90;;;7.20;;
8737;SDS011;4405;49.272;8.590;2022-11-13T13:47:58;8.10;;;7.40;;
8737;SDS011;4405;49.272;8.590;2022-11-13T13:50:26;9.43;;;8.43;;
8737;SDS011;4405;49.272;8.590;2022-11-13T13:52:55;8.63;;;7.93;;
8737;SDS011;4405;49.272;8.590;2022-11-13T13:55:25;8.03;;;7.40;;
8737;SDS011;4405;49.272;8.590;2022-11-13T13:57:52;8.13;;;7.43;;
8737;SDS011;4405;49.272;8.590;2022-11-13T14:00:19;7.37;;;6.87;;
8737;SDS011;4405;49.272;8.590;2022-11-13T14:02:46;8.17;;;7.47;;
8737;SDS011;4405;49.272;8.590;2022-11-13T14:05:26;8.13;;;7.53;;
8737;SDS011;4405;49.272;8.590;2022-11-13T14:07:52;7.40;;;6.87;;
8737;SDS011;4405;49.272;8.590;2022-11-13T14:10:21;7.30;;;6.80;;
8737;SDS011;4405;49.272;8.590;2022-11-13T14:12:48;6.80;;;6.40;;
8737;SDS011;4405;49.272;8.590;2022-11-13T14:15:25;7.20;;;6.70;;
8737;SDS011;4405;49.272;8.590;2022-11-13T14:17:51;7.53;;;6.97;;
8737;SDS011;4405;49.272;8.590;2022-11-13T14:20:18;7.30;;;6.80;;
8737;SDS011;4405;49.272;8.590;2022-11-13T14:22:45;7.23;;;6.73;;
8737;SDS011;4405;49.272;8.590;2022-11-13T14:25:15;7.57;;;6.97;;
8737;SDS011;4405;49.272;8.590;2022-11-13T14:27:45;7.23;;;6.63;;
8737;SDS011;4405;49.272;8.590;2022-11-13T14:30:20;8.33;;;7.63;;
8737;SDS011;4405;49.272;8.590;2022-11-13T14:32:47;7.47;;;6.77;;
8737;SDS011;4405;49.272;8.590;2022-11-13T14:35:16;8.40;;;7.70;;
8737;SDS011;4405;49.272;8.590;2022-11-13T14:37:44;8.10;;;7.50;;
8737;SDS011;4405;49.272;8.590;2022-11-13T14:40:13;10.10;;;9.03;;
8737;SDS011;4405;49.272;8.590;2022-11-13T14:42:42;9.47;;;8.30;;
8737;SDS011;4405;49.272;8.590;2022-11-13T14:45:16;8.83;;;8.03;;
8737;SDS011;4405;49.272;8.590;2022-11-13T14:47:42;11.47;;;10.37;;
8737;SDS011;4405;49.272;8.590;2022-11-13T14:50:19;9.40;;;8.43;;
8737;SDS011;4405;49.272;8.590;2022-11-13T14:52:54;9.90;;;9.00;;
8737;SDS011;4405;49.272;8.590;2022-11-13T14:55:21;10.90;;;9.83;;
8737;SDS011;4405;49.272;8.590;2022-11-13T14:57:48;12.87;;;11.70;;
8737;SDS011;4405;49.272;8.590;2022-11-13T15:00:16;9.90;;;9.00;;
8737;SDS011;4405;49.272;8.590;2022-11-13T15:02:43;10.40;;;9.40;;
8737;SDS011;4405;49.272;8.590;2022-11-13T15:05:09;9.70;;;8.80;;